Airfield :
LOGIN :

Register | Disclaimer

   EN    FR    IT 

 










Legend :    VFR   Marginal VFR   IFR   Intensive IFR   Very Intensive IFR
Visi :
Ceiling :
>= 8 km
>= 3000ft
5 to 8 km
1000 to 3000 ft
1500m to 5 km
500 to 1000 ft
800 to 1500m
200 to 500 ft
< 800m
< 200 ft
Symbols :   Thunderstorms  Fog  Heavy snow  Heavy precipitations  Wind > 20 kt
SIGMETs :     Misc.  Thunderstorms  Icing  Turbulence  Mountain Waves  Volcanic Ashes






- Airport Elevation : 755 ft
- IATA code : RWN


UKLR - Rivne

CURRENT METAR :
  • 210830Z 13002MPS 090V160 CAVOK 19/06 Q1023 NOSIG

EXPIRED METARs :
  • 210800Z 11002MPS 050V200 CAVOK 18/08 Q1023 NOSIG
  • 210730Z 11002MPS 070V140 CAVOK 16/09 Q1023 NOSIG
  • 210700Z VRB01MPS CAVOK 15/09 Q1023 NOSIG
  • 210630Z VRB01MPS CAVOK 13/09 Q1023 NOSIG
  • 210600Z 11002MPS 060V130 CAVOK 11/08 Q1022 NOSIG

TAF TAF UKLR
Valid from the 21 at 09:00 until the 21 at 18:00 UTC


210802Z 2109/2118 12003G08MPS 9999 BKN020 TX25/2113Z TN13/2118Z
TEMPO 2110/2116 15005G11MPS



MET'MAP, your aeronautical weather chart ! - Copyright ORBIFLY December 2007 - Disclaimer

ORBIFLY MET'MAP TEAM :

Programming & Development : Alexandra Zaïnal
Concept & original design : Baudouin d'Aumeries
Assistance for programming : Marc-Olivier Méhu
Technical & hardware support : Manuel Goepfert

Contact : metmap@orbifly.com




SOURCES & CREDITS :

   NOAA